Time;durP1;ratioP1;P1;durP2;ratioP2;P2;SDS_P1;SDS_P2;PMS_P1;PMS_P2;Temp;Humidity;BMP_temperature;BMP_pressure;BME280_temperature;BME280_humidity;BME280_pressure;Samples;Min_cycle;Max_cycle;Signal;HPM_P1;HPM_P2
2023/01/28 00:03:15;;;;;;;1999.90;999.90;;;3.70;99.90;;;;;;6732882;88;20195;-76
2023/01/28 00:13:15;;;;;;;1999.90;999.90;;;3.60;99.90;;;;;;6733597;88;20200;-77
2023/01/28 00:23:15;;;;;;;1999.90;999.90;;;3.70;99.90;;;;;;6735111;88;20608;-76
2023/01/28 00:33:16;;;;;;;1999.90;999.90;;;3.60;99.90;;;;;;6735362;88;20181;-75
2023/01/28 00:43:16;;;;;;;1999.90;999.90;;;3.50;99.90;;;;;;6732437;88;20369;-77
2023/01/28 00:53:17;;;;;;;1999.90;999.90;;;3.40;99.90;;;;;;6733520;88;20234;-77
2023/01/28 01:03:18;;;;;;;1999.90;999.90;;;3.40;99.90;;;;;;6734488;88;20271;-77
2023/01/28 01:13:19;;;;;;;1999.90;999.90;;;3.40;99.90;;;;;;6733122;88;20205;-76
2023/01/28 01:23:19;;;;;;;1999.90;999.90;;;3.40;99.90;;;;;;6730594;88;20223;-76
2023/01/28 01:33:20;;;;;;;1999.90;999.90;;;3.40;99.90;;;;;;6733239;88;20230;-76
2023/01/28 01:43:21;;;;;;;1999.90;999.90;;;3.30;99.90;;;;;;6734426;88;20204;-76
2023/01/28 01:53:24;;;;;;;1999.90;999.90;;;3.30;99.90;;;;;;6737137;88;20236;-76
2023/01/28 02:03:30;;;;;;;1999.90;999.90;;;3.10;99.90;;;;;;6746910;88;20664;-78
2023/01/28 02:13:47;;;;;;;1999.90;999.90;;;3.00;99.90;;;;;;6739510;88;20193;-77
2023/01/28 02:24:08;;;;;;;1999.90;999.90;;;2.70;99.90;;;;;;6737221;88;20204;-77
2023/01/28 02:34:39;;;;;;;1999.90;999.90;;;2.70;99.90;;;;;;6736501;88;20228;-76
2023/01/28 02:44:39;;;;;;;1999.90;999.90;;;2.70;99.90;;;;;;6733722;88;20192;-76
2023/01/28 02:54:59;;;;;;;1999.90;999.90;;;2.70;99.90;;;;;;6737471;88;20188;-77
2023/01/28 03:05:17;;;;;;;1999.90;999.90;;;2.60;99.90;;;;;;6736969;88;20218;-76
2023/01/28 03:46:25;;;;;;;1999.90;999.90;;;2.30;99.90;;;;;;6735871;88;20244;-78
2023/01/28 03:56:27;;;;;;;1999.90;999.90;;;2.40;99.90;;;;;;6732801;88;20279;-77
2023/01/28 04:06:27;;;;;;;1999.90;999.90;;;2.30;99.90;;;;;;6735706;88;20842;-77
2023/01/28 04:16:28;;;;;;;1999.90;999.90;;;2.30;99.90;;;;;;6736054;88;20367;-77
2023/01/28 04:26:28;;;;;;;1999.90;999.90;;;2.10;99.90;;;;;;6735895;88;20282;-77
2023/01/28 04:36:29;;;;;;;1999.90;999.90;;;2.00;99.90;;;;;;6735879;88;20322;-78
2023/01/28 04:46:29;;;;;;;1999.90;999.90;;;1.80;99.90;;;;;;6733331;88;20295;-78
2023/01/28 04:56:30;;;;;;;1999.90;999.90;;;1.80;99.90;;;;;;6743390;88;20333;-78
2023/01/28 05:06:31;;;;;;;1999.90;999.90;;;1.90;99.90;;;;;;6720874;78;20208;-77
2023/01/28 05:16:33;;;;;;;1999.90;999.90;;;1.90;99.90;;;;;;6685009;88;20235;-77
2023/01/28 05:26:34;;;;;;;1999.90;999.90;;;1.90;99.90;;;;;;6739152;88;20188;-76
2023/01/28 05:36:34;;;;;;;1999.90;999.90;;;1.80;99.90;;;;;;6737756;88;20657;-79
2023/01/28 05:46:35;;;;;;;1999.90;999.90;;;1.90;99.90;;;;;;6737739;88;20218;-77
2023/01/28 05:56:35;;;;;;;1999.90;999.90;;;1.80;99.90;;;;;;6737429;88;20700;-77
2023/01/28 06:06:36;;;;;;;1999.90;999.90;;;1.80;99.90;;;;;;6738165;88;20532;-80
2023/01/28 06:16:37;;;;;;;1999.90;999.90;;;1.80;99.90;;;;;;6739846;88;20314;-79
2023/01/28 06:26:37;;;;;;;1999.90;999.90;;;1.70;99.90;;;;;;6739336;88;20732;-79
2023/01/28 06:36:38;;;;;;;1999.90;999.90;;;1.60;99.90;;;;;;6742783;88;20912;-79
2023/01/28 06:46:38;;;;;;;1999.90;999.90;;;1.60;99.90;;;;;;6742759;88;20184;-78
2023/01/28 06:56:39;;;;;;;1999.90;999.90;;;1.70;99.90;;;;;;6741980;88;20204;-78
2023/01/28 07:06:39;;;;;;;1999.90;999.90;;;1.60;99.90;;;;;;6741895;88;20234;-79
2023/01/28 07:16:40;;;;;;;1999.90;999.90;;;1.70;99.90;;;;;;6742683;88;20238;-78
2023/01/28 07:26:40;;;;;;;1999.90;999.90;;;1.70;99.90;;;;;;6742717;88;20222;-77
2023/01/28 07:36:41;;;;;;;1999.90;999.90;;;1.60;99.90;;;;;;6742061;88;20230;-78
2023/01/28 07:46:41;;;;;;;1999.90;999.90;;;1.70;99.90;;;;;;6745088;88;20192;-78
2023/01/28 07:56:42;;;;;;;1999.90;999.90;;;1.60;99.90;;;;;;6744075;88;20498;-78
2023/01/28 08:06:42;;;;;;;1999.90;999.90;;;1.80;99.90;;;;;;6745871;88;20176;-79
2023/01/28 08:16:43;;;;;;;1999.90;999.90;;;1.80;99.90;;;;;;6749093;88;20280;-80
2023/01/28 08:26:46;;;;;;;1999.90;999.90;;;1.80;99.90;;;;;;6748291;88;20314;-77
2023/01/28 08:36:47;;;;;;;1999.90;999.90;;;1.90;99.90;;;;;;6740374;88;20397;-79
2023/01/28 08:46:47;;;;;;;1999.90;999.90;;;2.10;99.90;;;;;;6738371;88;20241;-79
2023/01/28 08:56:48;;;;;;;1999.90;999.90;;;2.10;99.90;;;;;;6742414;88;20185;-79
2023/01/28 09:06:48;;;;;;;1999.90;999.90;;;2.20;99.90;;;;;;6749007;88;20695;-78
2023/01/28 09:16:49;;;;;;;1999.90;999.90;;;2.20;99.90;;;;;;6752882;88;20309;-77
2023/01/28 09:26:50;;;;;;;1999.90;999.90;;;2.20;99.90;;;;;;6744810;88;20585;-77
2023/01/28 09:36:50;;;;;;;1999.90;999.90;;;2.20;99.90;;;;;;6745666;88;20418;-80
2023/01/28 09:46:51;;;;;;;1999.90;999.90;;;2.40;99.90;;;;;;6740552;88;20315;-78
2023/01/28 09:57:04;;;;;;;1999.90;999.90;;;2.40;99.90;;;;;;6739133;88;20931;-77
2023/01/28 10:07:21;;;;;;;1999.90;999.90;;;2.40;99.90;;;;;;6739809;88;20188;-77
2023/01/28 10:17:30;;;;;;;1999.90;999.90;;;2.40;99.90;;;;;;6739534;88;20168;-76
2023/01/28 10:27:32;;;;;;;1999.90;999.90;;;2.40;99.90;;;;;;6722166;88;20591;-79
2023/01/28 10:37:35;;;;;;;1999.90;999.90;;;2.30;99.90;;;;;;6722421;88;20660;-78
2023/01/28 10:48:12;;;;;;;1999.90;999.90;;;2.40;99.90;;;;;;6722060;88;20731;-78
2023/01/28 10:58:23;;;;;;;1999.90;999.90;;;2.50;99.90;;;;;;6727974;88;20204;-78
2023/01/28 11:08:26;;;;;;;1999.90;999.90;;;2.50;99.90;;;;;;6723733;78;20865;-74
2023/01/28 11:18:31;;;;;;;1999.90;999.90;;;2.70;99.90;;;;;;6706736;88;20201;-73
2023/01/28 11:28:32;;;;;;;1999.90;999.90;;;2.70;99.90;;;;;;6709634;88;21013;-73
2023/01/28 11:38:33;;;;;;;1999.90;999.90;;;2.70;99.90;;;;;;6705276;88;20663;-73
2023/01/28 11:48:58;;;;;;;1999.90;999.90;;;2.80;99.90;;;;;;6706822;88;20200;-73
2023/01/28 11:59:15;;;;;;;1999.90;999.90;;;2.90;99.90;;;;;;6709706;88;20289;-74
2023/01/28 12:09:42;;;;;;;1999.90;999.90;;;2.80;99.90;;;;;;6708175;88;20287;-73
2023/01/28 12:19:59;;;;;;;1999.90;999.90;;;2.70;99.90;;;;;;6708526;88;20193;-73
2023/01/28 12:30:18;;;;;;;1999.90;999.90;;;2.60;99.90;;;;;;6709726;88;20218;-73
2023/01/28 12:40:27;;;;;;;1999.90;999.90;;;2.60;99.90;;;;;;6706985;88;20194;-74
2023/01/28 12:50:57;;;;;;;1999.90;999.90;;;2.60;99.90;;;;;;6707204;88;20252;-74
2023/01/28 13:01:06;;;;;;;1999.90;999.90;;;2.80;99.90;;;;;;6703823;88;20201;-74
2023/01/28 13:11:14;;;;;;;1999.90;999.90;;;2.80;99.90;;;;;;6702843;88;20568;-75
2023/01/28 13:21:24;;;;;;;1999.90;999.90;;;2.80;99.90;;;;;;6708943;88;20548;-74
2023/01/28 13:31:36;;;;;;;1999.90;999.90;;;2.70;99.90;;;;;;6711620;88;20680;-75
2023/01/28 13:41:48;;;;;;;1999.90;999.90;;;2.60;99.90;;;;;;6709528;88;20224;-74
2023/01/28 13:52:03;;;;;;;1999.90;999.90;;;3.00;99.90;;;;;;6714185;88;20283;-75
2023/01/28 14:02:22;;;;;;;1999.90;999.90;;;3.20;99.90;;;;;;6712483;88;20190;-75
2023/01/28 14:12:49;;;;;;;1999.90;999.90;;;4.00;99.90;;;;;;6708022;88;20239;-75
2023/01/28 14:22:53;;;;;;;1999.90;999.90;;;4.80;99.90;;;;;;6706818;88;20226;-75
2023/01/28 14:32:54;;;;;;;1999.90;999.90;;;6.20;99.90;;;;;;6713564;88;20252;-74
2023/01/28 14:42:57;;;;;;;1999.90;999.90;;;6.50;99.90;;;;;;6710486;88;20182;-75
2023/01/28 14:53:06;;;;;;;1999.90;999.90;;;7.30;99.90;;;;;;6711555;88;20243;-75
2023/01/28 15:03:17;;;;;;;1999.90;999.90;;;6.40;99.90;;;;;;6712054;88;20299;-76
2023/01/28 15:13:31;;;;;;;1999.90;999.90;;;5.00;99.90;;;;;;6725787;88;20189;-75
2023/01/28 15:23:37;;;;;;;1999.90;999.90;;;4.20;99.90;;;;;;6724206;88;20204;-74
2023/01/28 15:33:37;;;;;;;1999.90;999.90;;;3.70;99.90;;;;;;6717989;88;20204;-74
2023/01/28 15:43:38;;;;;;;1999.90;999.90;;;3.40;99.90;;;;;;6715554;88;20285;-76
2023/01/28 15:53:44;;;;;;;1999.90;999.90;;;3.40;99.90;;;;;;6713045;88;20181;-74
2023/01/28 16:03:46;;;;;;;1999.90;999.90;;;2.90;99.90;;;;;;6711388;88;20495;-74
2023/01/28 16:13:47;;;;;;;1999.90;999.90;;;2.50;99.90;;;;;;6711708;88;20173;-75
2023/01/28 16:23:58;;;;;;;1999.90;999.90;;;2.30;99.90;;;;;;6711981;88;20190;-74
2023/01/28 16:33:59;;;;;;;1999.90;999.90;;;1.80;99.90;;;;;;6709296;88;20185;-75
2023/01/28 16:44:04;;;;;;;1999.90;999.90;;;1.50;99.90;;;;;;6709866;88;20226;-74
2023/01/28 16:54:05;;;;;;;1999.90;999.90;;;1.10;99.90;;;;;;6711788;88;20182;-74
2023/01/28 17:04:08;;;;;;;1999.90;999.90;;;0.90;99.90;;;;;;6711421;88;20210;-74
2023/01/28 17:14:09;;;;;;;1999.90;999.90;;;0.50;99.90;;;;;;6700972;88;20182;-73
2023/01/28 17:24:10;;;;;;;1999.90;999.90;;;0.60;99.90;;;;;;6700639;88;20361;-75
2023/01/28 17:34:11;;;;;;;1999.90;999.90;;;0.80;99.90;;;;;;6714196;88;20348;-74
2023/01/28 17:44:13;;;;;;;1999.90;999.90;;;0.90;99.90;;;;;;6713728;88;20227;-74
2023/01/28 17:54:15;;;;;;;1999.90;999.90;;;1.00;99.90;;;;;;6713415;88;20198;-74
2023/01/28 18:04:16;;;;;;;1999.90;999.90;;;1.00;99.90;;;;;;6713771;88;20193;-74
2023/01/28 18:14:16;;;;;;;1999.90;999.90;;;0.70;99.90;;;;;;6713840;88;20697;-74
2023/01/28 18:24:17;;;;;;;1999.90;999.90;;;0.60;99.90;;;;;;6698345;88;20633;-75
2023/01/28 18:34:18;;;;;;;1999.90;999.90;;;0.40;99.90;;;;;;6704066;88;20218;-75
2023/01/28 18:44:18;;;;;;;1999.90;999.90;;;0.20;99.90;;;;;;6713259;88;20706;-74
2023/01/28 18:54:19;;;;;;;1999.90;999.90;;;0.20;99.90;;;;;;6720404;88;20221;-76
2023/01/28 19:04:19;;;;;;;1999.90;999.90;;;0.20;99.90;;;;;;6709728;88;20231;-75
2023/01/28 19:14:20;;;;;;;1999.90;999.90;;;0.30;99.90;;;;;;6709821;88;20209;-75
2023/01/28 19:24:21;;;;;;;1999.90;999.90;;;0.10;99.90;;;;;;6711150;88;20299;-76
2023/01/28 19:34:21;;;;;;;1999.90;999.90;;;0.10;99.90;;;;;;6708524;88;20239;-74
2023/01/28 19:44:22;;;;;;;1999.90;999.90;;;0.00;99.90;;;;;;6708530;88;20491;-76
2023/01/28 19:54:22;;;;;;;1999.90;999.90;;;-0.10;99.90;;;;;;6712622;88;20254;-75
2023/01/28 20:04:23;;;;;;;1999.90;999.90;;;-0.10;99.90;;;;;;6713061;88;20219;-73
2023/01/28 20:14:23;;;;;;;1999.90;999.90;;;0.00;99.90;;;;;;6716520;88;20193;-75
2023/01/28 20:24:24;;;;;;;1999.90;999.90;;;0.00;99.90;;;;;;6711998;88;20214;-74
2023/01/28 20:34:25;;;;;;;1999.90;999.90;;;0.10;99.90;;;;;;6717541;88;20396;-75
2023/01/28 20:44:30;;;;;;;1999.90;999.90;;;0.10;99.90;;;;;;6713940;88;20325;-74
2023/01/28 20:54:31;;;;;;;1999.90;999.90;;;0.00;99.90;;;;;;6711779;88;20604;-73
2023/01/28 21:04:32;;;;;;;1999.90;999.90;;;-0.20;99.90;;;;;;6706679;88;20234;-73
2023/01/28 21:14:33;;;;;;;1999.90;999.90;;;-0.20;99.90;;;;;;6712146;88;20179;-75
2023/01/28 21:24:33;;;;;;;1999.90;999.90;;;-0.30;99.90;;;;;;6716222;88;21160;-74
2023/01/28 21:34:34;;;;;;;1999.90;999.90;;;-0.40;99.90;;;;;;6712037;88;20188;-74
2023/01/28 21:44:35;;;;;;;1999.90;999.90;;;-0.40;99.90;;;;;;6715910;88;20248;-74
2023/01/28 21:54:35;;;;;;;1999.90;999.90;;;-0.30;99.90;;;;;;6713010;88;20642;-75
2023/01/28 22:04:38;;;;;;;1999.90;999.90;;;-0.50;99.90;;;;;;6712445;88;20194;-74
2023/01/28 22:14:39;;;;;;;1999.90;999.90;;;-0.70;99.90;;;;;;6717277;88;20202;-76
2023/01/28 22:24:40;;;;;;;1999.90;999.90;;;-1.00;99.90;;;;;;6713790;88;20194;-75
2023/01/28 22:34:41;;;;;;;1999.90;999.90;;;-1.00;99.90;;;;;;6711150;88;20304;-75
2023/01/28 22:44:41;;;;;;;1999.90;999.90;;;-0.70;99.90;;;;;;6721935;88;20225;-76
2023/01/28 22:54:42;;;;;;;1999.90;999.90;;;-0.90;99.90;;;;;;6713409;88;20706;-75
2023/01/28 23:04:44;;;;;;;1999.90;999.90;;;-0.80;99.90;;;;;;6709894;77;20247;-75
2023/01/28 23:25:04;;;;;;;1999.90;999.90;;;-1.10;99.90;;;;;;6727388;88;20208;-75
2023/01/28 23:35:07;;;;;;;1999.90;999.90;;;-1.20;99.90;;;;;;6729939;88;20585;-75
2023/01/28 23:45:08;;;;;;;1999.90;999.90;;;-1.30;99.90;;;;;;6732796;88;20248;-75
2023/01/28 23:55:08;;;;;;;1999.90;999.90;;;-1.30;99.90;;;;;;6731161;88;20173;-74
